Time;durP1;ratioP1;P1;durP2;ratioP2;P2;SDS_P1;SDS_P2;PMS_P1;PMS_P2;Temp;Humidity;BMP_temperature;BMP_pressure;BME280_temperature;BME280_humidity;BME280_pressure;Samples;Min_cycle;Max_cycle;Signal;HPM_P1;HPM_P2
2022/03/05 00:00:50;;;;;;;9.10;3.00;;;-1.30;99.90;;;;;;5071142;28;20021;-54
2022/03/05 00:03:16;;;;;;;6.03;3.20;;;-1.30;99.90;;;;;;5070992;28;20044;-53
2022/03/05 00:05:42;;;;;;;4.72;3.03;;;-1.30;99.90;;;;;;5071286;28;20086;-54
2022/03/05 00:08:09;;;;;;;7.32;3.00;;;-1.30;99.90;;;;;;5071385;28;20507;-55
2022/03/05 00:10:35;;;;;;;4.93;2.67;;;-1.30;99.90;;;;;;5070546;28;20502;-51
2022/03/05 00:13:00;;;;;;;6.13;2.50;;;-1.30;99.90;;;;;;5070560;28;20025;-55
2022/03/05 00:15:28;;;;;;;3.03;2.03;;;-1.30;99.90;;;;;;5070024;28;20020;-55
2022/03/05 00:17:54;;;;;;;6.32;2.60;;;-1.30;99.90;;;;;;5071360;28;20602;-50
2022/03/05 00:20:21;;;;;;;5.30;2.90;;;-1.30;99.90;;;;;;5070791;28;20054;-53
2022/03/05 00:22:47;;;;;;;4.70;2.03;;;-1.30;99.90;;;;;;5070550;28;20097;-55
2022/03/05 00:25:14;;;;;;;3.85;2.28;;;-1.40;99.90;;;;;;5070976;28;20032;-52
2022/03/05 00:27:40;;;;;;;6.18;2.83;;;-1.40;99.90;;;;;;5070518;28;20029;-53
2022/03/05 00:30:07;;;;;;;6.65;2.80;;;-1.40;99.90;;;;;;5070465;28;20040;-52
2022/03/05 00:32:32;;;;;;;5.68;2.30;;;-1.40;99.90;;;;;;5070421;28;20033;-56
2022/03/05 00:34:58;;;;;;;4.95;2.85;;;-1.40;99.90;;;;;;5069682;28;20029;-56
2022/03/05 00:37:24;;;;;;;5.00;2.30;;;-1.40;99.90;;;;;;5057927;28;20050;-52
2022/03/05 00:39:49;;;;;;;3.15;2.33;;;-1.40;99.90;;;;;;5070535;28;20036;-53
2022/03/05 00:42:15;;;;;;;4.40;2.33;;;-1.50;99.90;;;;;;5069961;28;20472;-55
2022/03/05 00:44:41;;;;;;;2.30;2.08;;;-1.50;99.90;;;;;;5070356;28;20028;-55
2022/03/05 00:47:07;;;;;;;5.70;2.80;;;-1.50;99.90;;;;;;5070306;28;20040;-54
2022/03/05 00:49:32;;;;;;;2.85;2.00;;;-1.50;99.90;;;;;;5070464;28;20033;-55
2022/03/05 00:51:58;;;;;;;5.05;2.53;;;-1.50;99.90;;;;;;5070391;28;20028;-56
2022/03/05 00:54:24;;;;;;;5.97;2.30;;;-1.50;99.90;;;;;;5070267;28;20032;-55
2022/03/05 00:56:49;;;;;;;5.60;2.08;;;-1.50;99.90;;;;;;5070034;28;20090;-54
2022/03/05 00:59:15;;;;;;;3.72;2.25;;;-1.50;99.90;;;;;;5069965;28;20112;-52
2022/03/05 01:01:40;;;;;;;4.13;2.17;;;-1.50;99.90;;;;;;5068856;28;20043;-52
2022/03/05 01:04:09;;;;;;;3.97;2.15;;;-1.50;99.90;;;;;;5069532;28;20044;-54
2022/03/05 01:06:35;;;;;;;4.43;2.05;;;-1.50;99.90;;;;;;5070239;28;20035;-53
2022/03/05 01:09:02;;;;;;;2.58;1.77;;;-1.60;99.90;;;;;;5070125;28;20404;-50
2022/03/05 01:11:28;;;;;;;5.10;2.30;;;-1.60;99.90;;;;;;5069804;28;20043;-53
2022/03/05 01:13:53;;;;;;;5.05;2.40;;;-1.60;99.90;;;;;;5067999;28;20032;-52
2022/03/05 01:16:20;;;;;;;4.50;2.00;;;-1.60;99.90;;;;;;5057571;28;20087;-53
2022/03/05 01:18:46;;;;;;;5.07;2.22;;;-1.70;99.90;;;;;;5067460;28;20115;-50
2022/03/05 01:21:12;;;;;;;2.55;2.10;;;-1.70;99.90;;;;;;5069980;28;20111;-50
2022/03/05 01:23:37;;;;;;;4.95;2.13;;;-1.70;99.90;;;;;;5068064;28;20140;-53
2022/03/05 01:26:04;;;;;;;4.35;2.05;;;-1.70;99.90;;;;;;5068295;28;20115;-52
2022/03/05 01:28:29;;;;;;;3.17;1.63;;;-1.70;99.90;;;;;;5069461;28;20111;-51
2022/03/05 01:30:55;;;;;;;3.60;1.80;;;-1.70;99.90;;;;;;5069928;28;20103;-51
2022/03/05 01:33:21;;;;;;;2.38;1.88;;;-1.70;99.90;;;;;;5069382;28;20109;-51
2022/03/05 01:35:48;;;;;;;4.05;2.00;;;-1.70;99.90;;;;;;5069506;28;20032;-55
2022/03/05 01:38:14;;;;;;;5.13;2.40;;;-1.70;99.90;;;;;;5069617;28;20028;-50
2022/03/05 01:40:40;;;;;;;5.35;2.10;;;-1.70;99.90;;;;;;5068529;28;20064;-54
2022/03/05 01:43:06;;;;;;;3.70;1.85;;;-1.70;99.90;;;;;;5069558;28;20074;-52
2022/03/05 01:45:32;;;;;;;3.60;2.00;;;-1.80;99.90;;;;;;5069666;28;20033;-53
2022/03/05 01:47:58;;;;;;;3.70;2.08;;;-1.70;99.90;;;;;;5068860;28;20043;-54
2022/03/05 01:50:25;;;;;;;2.80;1.73;;;-1.80;99.90;;;;;;5069210;28;20029;-55
2022/03/05 01:52:50;;;;;;;3.65;1.98;;;-1.80;99.90;;;;;;5069114;28;20028;-51
2022/03/05 01:55:16;;;;;;;4.05;2.47;;;-1.70;99.90;;;;;;5068938;28;20078;-56
2022/03/05 01:57:42;;;;;;;6.15;2.03;;;-1.70;99.90;;;;;;5065137;28;20036;-51
2022/03/05 02:00:10;;;;;;;5.45;2.40;;;-1.70;99.90;;;;;;5066823;28;20079;-50
2022/03/05 02:02:36;;;;;;;4.78;1.92;;;-1.70;99.90;;;;;;5066203;28;20040;-54
2022/03/05 02:05:02;;;;;;;4.75;1.88;;;-1.80;99.90;;;;;;5068236;28;20103;-53
2022/03/05 02:07:28;;;;;;;3.78;1.88;;;-1.80;99.90;;;;;;5069908;28;20691;-55
2022/03/05 02:09:54;;;;;;;6.38;2.15;;;-1.80;99.90;;;;;;5067395;28;20075;-53
2022/03/05 02:12:30;;;;;;;4.50;2.20;;;-1.80;99.90;;;;;;5067588;28;20033;-53
2022/03/05 02:14:58;;;;;;;3.22;2.28;;;-1.80;99.90;;;;;;5068142;28;20028;-53
2022/03/05 02:17:27;;;;;;;3.53;2.22;;;-1.80;99.90;;;;;;5067596;28;20050;-54
2022/03/05 02:19:57;;;;;;;3.17;1.80;;;-1.80;99.90;;;;;;5067576;28;20032;-50
2022/03/05 02:22:24;;;;;;;1.60;1.40;;;-1.90;99.90;;;;;;5068848;28;20507;-50
2022/03/05 02:25:02;;;;;;;1.70;1.60;;;-1.90;99.90;;;;;;5068943;28;20074;-54
2022/03/05 02:27:28;;;;;;;3.42;1.70;;;-1.90;99.90;;;;;;5067897;28;20039;-53
2022/03/05 02:29:55;;;;;;;4.47;2.10;;;-1.90;99.90;;;;;;5068819;28;20028;-51
2022/03/05 02:32:21;;;;;;;4.00;1.55;;;-2.00;99.90;;;;;;5068775;28;20021;-52
2022/03/05 02:34:47;;;;;;;2.13;1.67;;;-2.00;99.90;;;;;;5068822;28;20016;-52
2022/03/05 02:37:15;;;;;;;5.40;1.60;;;-2.00;99.90;;;;;;5069206;28;20029;-52
2022/03/05 02:39:42;;;;;;;3.83;1.70;;;-2.00;99.90;;;;;;5068633;28;20036;-54
2022/03/05 02:42:08;;;;;;;2.58;1.38;;;-2.10;99.90;;;;;;5068218;28;20460;-51
2022/03/05 02:44:34;;;;;;;3.00;1.95;;;-2.10;99.90;;;;;;5068705;28;20492;-55
2022/03/05 02:46:59;;;;;;;3.63;1.98;;;-2.10;99.90;;;;;;5069071;28;20079;-52
2022/03/05 02:49:25;;;;;;;4.00;1.95;;;-2.10;99.90;;;;;;5067483;28;20025;-52
2022/03/05 02:51:51;;;;;;;2.08;1.60;;;-2.10;99.90;;;;;;5067879;28;20615;-52
2022/03/05 02:54:17;;;;;;;4.05;2.13;;;-2.10;99.90;;;;;;5068603;28;20432;-54
2022/03/05 02:56:43;;;;;;;2.88;1.77;;;-2.10;99.90;;;;;;5068943;28;20082;-53
2022/03/05 02:59:08;;;;;;;3.45;1.95;;;-2.10;99.90;;;;;;5068777;28;20477;-53
2022/03/05 03:01:34;;;;;;;4.50;1.55;;;-2.10;99.90;;;;;;5068614;28;20035;-52
2022/03/05 03:04:00;;;;;;;2.45;1.70;;;-2.00;99.90;;;;;;5057766;28;20032;-51
2022/03/05 03:06:26;;;;;;;3.03;1.67;;;-2.10;99.90;;;;;;5068768;28;20168;-49
2022/03/05 03:08:51;;;;;;;3.03;2.00;;;-2.10;99.90;;;;;;5067911;28;20116;-51
2022/03/05 03:11:17;;;;;;;2.80;1.45;;;-2.10;99.90;;;;;;5068698;28;20051;-50
2022/03/05 03:13:42;;;;;;;4.03;2.05;;;-2.10;99.90;;;;;;5067625;28;20480;-48
2022/03/05 03:16:09;;;;;;;3.00;1.80;;;-2.10;99.90;;;;;;5068179;28;20028;-50
2022/03/05 03:18:34;;;;;;;6.90;1.77;;;-2.10;99.90;;;;;;5068447;28;20103;-51
2022/03/05 03:21:00;;;;;;;3.40;2.20;;;-2.10;99.90;;;;;;5068532;28;20112;-51
2022/03/05 03:23:25;;;;;;;3.47;1.85;;;-2.10;99.90;;;;;;5068928;28;20451;-53
2022/03/05 03:25:51;;;;;;;3.90;1.95;;;-2.10;99.90;;;;;;5068102;28;20029;-52
2022/03/05 03:28:16;;;;;;;4.13;1.63;;;-2.10;99.90;;;;;;5071473;28;20094;-52
2022/03/05 03:30:42;;;;;;;3.72;1.83;;;-2.10;99.90;;;;;;5071773;28;20024;-50
2022/03/05 03:33:08;;;;;;;4.68;1.90;;;-2.10;99.90;;;;;;5071578;28;20535;-53
2022/03/05 03:35:34;;;;;;;3.25;1.90;;;-2.10;99.90;;;;;;5070727;28;20024;-53
2022/03/05 03:38:00;;;;;;;7.38;2.58;;;-2.10;99.90;;;;;;5071747;28;20715;-54
2022/03/05 03:40:26;;;;;;;5.47;2.22;;;-2.20;99.90;;;;;;5071151;28;20030;-51
2022/03/05 03:42:51;;;;;;;3.63;2.03;;;-2.20;99.90;;;;;;5071823;28;20130;-49
2022/03/05 03:45:18;;;;;;;4.63;1.70;;;-2.20;99.90;;;;;;5071709;28;20036;-52
2022/03/05 03:47:46;;;;;;;4.60;1.95;;;-2.20;99.90;;;;;;5070456;28;20024;-52
2022/03/05 03:50:14;;;;;;;2.65;2.03;;;-2.20;99.90;;;;;;5071633;28;20510;-52
2022/03/05 03:52:40;;;;;;;2.17;1.95;;;-2.20;99.90;;;;;;5070867;28;20503;-53
2022/03/05 03:55:08;;;;;;;4.30;2.03;;;-2.30;99.90;;;;;;5070002;28;20113;-55
2022/03/05 03:57:34;;;;;;;6.95;2.03;;;-2.30;99.90;;;;;;5071126;28;20020;-52
2022/03/05 04:00:00;;;;;;;2.80;1.90;;;-2.30;99.90;;;;;;5071560;28;20016;-50
2022/03/05 04:02:25;;;;;;;5.10;2.17;;;-2.30;99.90;;;;;;5070805;28;20056;-53
2022/03/05 04:04:51;;;;;;;2.97;1.98;;;-2.30;99.90;;;;;;5071365;28;20093;-52
2022/03/05 04:10:03;;;;;;;3.42;1.98;;;-2.40;99.90;;;;;;5071415;28;20113;-54
2022/03/05 04:12:29;;;;;;;3.00;2.20;;;-2.30;99.90;;;;;;5070351;28;20472;-50
2022/03/05 04:14:55;;;;;;;4.25;2.13;;;-2.30;99.90;;;;;;5070610;28;20099;-55
2022/03/05 04:17:22;;;;;;;2.63;1.98;;;-2.30;99.90;;;;;;5070756;28;20586;-54
2022/03/05 04:19:47;;;;;;;5.63;2.20;;;-2.30;99.90;;;;;;5070987;28;20035;-55
2022/03/05 04:22:13;;;;;;;6.47;2.17;;;-2.30;99.90;;;;;;5070957;28;20032;-55
2022/03/05 04:24:39;;;;;;;5.38;2.28;;;-2.30;99.90;;;;;;5070897;28;20038;-54
2022/03/05 04:27:05;;;;;;;6.95;2.67;;;-2.40;99.90;;;;;;5070715;28;20036;-50
2022/03/05 04:29:31;;;;;;;4.22;2.35;;;-2.40;99.90;;;;;;5070676;28;20051;-52
2022/03/05 04:31:56;;;;;;;2.65;2.03;;;-2.40;99.90;;;;;;5070101;28;20036;-54
2022/03/05 04:34:22;;;;;;;3.50;2.08;;;-2.40;99.90;;;;;;5070288;28;20046;-56
2022/03/05 04:36:47;;;;;;;3.13;1.95;;;-2.40;99.90;;;;;;5070343;28;20028;-52
2022/03/05 04:39:13;;;;;;;6.43;2.05;;;-2.40;99.90;;;;;;5069038;28;20060;-51
2022/03/05 04:41:39;;;;;;;3.33;1.88;;;-2.50;99.90;;;;;;5067188;28;20039;-50
2022/03/05 04:44:05;;;;;;;2.63;2.03;;;-2.50;99.90;;;;;;5069888;28;20093;-52
2022/03/05 04:46:30;;;;;;;6.53;2.17;;;-2.50;99.90;;;;;;5070285;28;20032;-54
2022/03/05 04:48:56;;;;;;;2.50;2.10;;;-2.50;99.90;;;;;;5070098;28;20036;-54
2022/03/05 04:51:21;;;;;;;6.45;2.30;;;-2.50;99.90;;;;;;5070617;28;20485;-53
2022/03/05 04:53:47;;;;;;;4.03;2.17;;;-2.40;99.90;;;;;;5069249;28;20036;-54
2022/03/05 04:56:13;;;;;;;3.83;2.42;;;-2.40;99.90;;;;;;5070152;28;20089;-51
2022/03/05 04:58:38;;;;;;;7.00;2.33;;;-2.50;99.90;;;;;;5070157;28;20032;-53
2022/03/05 05:01:04;;;;;;;5.65;2.10;;;-2.40;99.90;;;;;;5068642;28;20044;-55
2022/03/05 05:03:30;;;;;;;3.85;2.28;;;-2.50;99.90;;;;;;5069224;28;20405;-51
2022/03/05 05:05:56;;;;;;;5.45;2.58;;;-2.50;99.90;;;;;;5070094;28;20450;-55
2022/03/05 05:08:22;;;;;;;5.53;2.45;;;-2.50;99.90;;;;;;5069740;28;20033;-52
2022/03/05 05:10:47;;;;;;;5.00;2.17;;;-2.50;99.90;;;;;;5070224;28;20447;-53
2022/03/05 05:13:13;;;;;;;3.22;2.35;;;-2.50;99.90;;;;;;5069528;28;20028;-53
2022/03/05 05:15:39;;;;;;;2.55;1.90;;;-2.60;99.90;;;;;;5069363;28;20115;-51
2022/03/05 05:18:04;;;;;;;4.32;2.42;;;-2.60;99.90;;;;;;5069974;28;20465;-52
2022/03/05 05:20:30;;;;;;;4.32;2.30;;;-2.60;99.90;;;;;;5069926;28;20548;-55
2022/03/05 05:22:56;;;;;;;3.95;2.22;;;-2.60;99.90;;;;;;5069160;28;20116;-52
2022/03/05 05:25:22;;;;;;;4.78;2.20;;;-2.60;99.90;;;;;;5069623;28;20128;-49
2022/03/05 05:27:48;;;;;;;7.55;2.53;;;-2.60;99.90;;;;;;5069838;28;20037;-54
2022/03/05 05:30:13;;;;;;;5.70;2.40;;;-2.60;99.90;;;;;;5069274;28;20430;-53
2022/03/05 05:32:39;;;;;;;5.18;2.33;;;-2.70;99.90;;;;;;5069417;28;20490;-54
2022/03/05 05:35:05;;;;;;;3.28;2.00;;;-2.60;99.90;;;;;;5069445;28;20028;-51
2022/03/05 05:37:32;;;;;;;5.75;2.20;;;-2.60;99.90;;;;;;5069522;28;20103;-50
2022/03/05 05:39:57;;;;;;;3.90;2.10;;;-2.70;99.90;;;;;;5069109;28;20036;-49
2022/03/05 05:42:23;;;;;;;4.10;2.47;;;-2.70;99.90;;;;;;5068745;28;20035;-50
2022/03/05 05:44:49;;;;;;;3.05;2.08;;;-2.70;99.90;;;;;;5069140;28;20028;-51
2022/03/05 05:47:14;;;;;;;3.33;2.47;;;-2.70;99.90;;;;;;5069439;28;20025;-55
2022/03/05 05:49:40;;;;;;;5.35;2.00;;;-2.70;99.90;;;;;;5068275;28;20036;-56
2022/03/05 05:52:06;;;;;;;3.78;2.95;;;-2.70;99.90;;;;;;5069086;28;20035;-54
2022/03/05 05:54:32;;;;;;;4.65;3.10;;;-2.70;99.90;;;;;;5069391;28;20084;-52
2022/03/05 05:56:57;;;;;;;5.22;2.67;;;-2.70;99.90;;;;;;5069506;28;20117;-55
2022/03/05 05:59:23;;;;;;;3.75;2.47;;;-2.80;99.90;;;;;;5068159;28;20024;-55
2022/03/05 06:01:49;;;;;;;4.05;2.10;;;-2.80;99.90;;;;;;5068053;28;20036;-55
2022/03/05 06:04:14;;;;;;;4.50;2.60;;;-2.80;99.90;;;;;;5067406;28;20041;-50
2022/03/05 06:06:40;;;;;;;3.63;2.65;;;-2.80;99.90;;;;;;5069158;28;20107;-54
2022/03/05 06:09:06;;;;;;;2.28;2.08;;;-2.80;99.90;;;;;;5069160;28;20044;-54
2022/03/05 06:13:57;;;;;;;5.35;2.53;;;-2.90;99.90;;;;;;5101114;23;20056;-46
2022/03/05 06:16:22;;;;;;;4.10;3.03;;;-2.90;99.90;;;;;;5082272;28;20028;-46
2022/03/05 06:18:48;;;;;;;6.43;3.00;;;-2.90;99.90;;;;;;5069769;28;20499;-47
2022/03/05 06:21:14;;;;;;;5.32;2.60;;;-2.90;99.90;;;;;;5069362;28;20032;-46
2022/03/05 06:23:40;;;;;;;4.05;2.72;;;-2.90;99.90;;;;;;5085531;28;20376;-45
2022/03/05 06:26:06;;;;;;;4.25;2.63;;;-2.90;99.90;;;;;;5088956;28;20024;-47
2022/03/05 06:28:32;;;;;;;5.20;3.28;;;-2.90;99.90;;;;;;5089512;28;20107;-49
2022/03/05 06:30:58;;;;;;;6.38;3.10;;;-2.90;99.90;;;;;;5089061;28;20460;-46
2022/03/05 06:33:24;;;;;;;4.03;2.80;;;-2.90;99.90;;;;;;5089250;28;20062;-48
2022/03/05 06:35:50;;;;;;;5.78;2.83;;;-2.90;99.90;;;;;;5088265;28;20024;-47
2022/03/05 06:38:16;;;;;;;7.93;3.30;;;-3.00;99.90;;;;;;5089419;28;20030;-47
2022/03/05 06:40:41;;;;;;;6.53;3.58;;;-3.00;99.90;;;;;;5087473;28;20518;-48
2022/03/05 06:43:07;;;;;;;8.23;3.05;;;-2.90;99.90;;;;;;5089176;28;20095;-46
2022/03/05 06:45:32;;;;;;;4.47;2.92;;;-2.90;99.90;;;;;;5089037;28;20104;-47
2022/03/05 06:47:58;;;;;;;5.80;2.85;;;-3.00;99.90;;;;;;5088262;28;20032;-46
2022/03/05 06:50:24;;;;;;;4.88;2.85;;;-2.90;99.90;;;;;;5090374;28;20054;-49
2022/03/05 06:52:49;;;;;;;5.03;2.75;;;-2.90;99.90;;;;;;5088611;28;20028;-49
2022/03/05 06:55:16;;;;;;;5.55;2.75;;;-2.90;99.90;;;;;;5088770;28;20039;-46
2022/03/05 06:57:43;;;;;;;5.40;3.13;;;-2.90;99.90;;;;;;5089205;28;20593;-47
2022/03/05 07:00:10;;;;;;;5.65;3.08;;;-2.90;99.90;;;;;;5090344;28;20092;-46
2022/03/05 07:02:35;;;;;;;5.07;3.20;;;-2.90;99.90;;;;;;5091920;28;20115;-46
2022/03/05 07:05:01;;;;;;;3.70;2.92;;;-2.90;99.90;;;;;;5091066;28;20103;-46
2022/03/05 07:07:26;;;;;;;4.97;2.78;;;-2.90;99.90;;;;;;5093006;28;20051;-47
2022/03/05 07:09:52;;;;;;;7.53;3.28;;;-2.90;99.90;;;;;;5091269;28;20028;-47
2022/03/05 07:12:17;;;;;;;4.32;2.35;;;-2.80;99.90;;;;;;5091852;28;20024;-47
2022/03/05 07:14:48;;;;;;;7.43;3.05;;;-2.80;99.90;;;;;;5092366;28;20034;-47
2022/03/05 07:17:15;;;;;;;6.55;3.45;;;-2.80;99.90;;;;;;5093073;28;20138;-48
2022/03/05 07:19:41;;;;;;;4.07;3.05;;;-2.70;99.90;;;;;;5093124;28;20032;-48
2022/03/05 07:22:07;;;;;;;6.53;2.70;;;-2.70;99.90;;;;;;5090719;28;20039;-47
2022/03/05 07:24:32;;;;;;;5.22;3.05;;;-2.60;99.90;;;;;;5092038;28;20028;-48
2022/03/05 07:26:58;;;;;;;4.97;2.70;;;-2.60;99.90;;;;;;5090740;28;20028;-47
2022/03/05 07:29:23;;;;;;;4.68;2.80;;;-2.50;99.90;;;;;;5092220;28;20116;-48
2022/03/05 07:31:49;;;;;;;7.68;3.72;;;-2.40;99.90;;;;;;5092352;28;20024;-48
2022/03/05 07:34:14;;;;;;;5.53;3.47;;;-2.40;99.90;;;;;;5090983;28;20024;-46
2022/03/05 07:36:40;;;;;;;6.93;3.80;;;-2.30;99.90;;;;;;5092111;28;20036;-47
2022/03/05 07:39:07;;;;;;;6.10;3.28;;;-2.20;99.90;;;;;;5090699;28;20036;-48
2022/03/05 07:41:36;;;;;;;8.93;3.55;;;-2.20;99.90;;;;;;5090691;28;20024;-47
2022/03/05 07:44:03;;;;;;;5.03;3.45;;;-2.10;99.90;;;;;;5092468;28;20031;-48
2022/03/05 07:46:29;;;;;;;7.30;3.60;;;-2.00;99.90;;;;;;5091248;28;20440;-47
2022/03/05 07:48:54;;;;;;;5.03;3.28;;;-1.90;99.90;;;;;;5092329;28;20020;-49
2022/03/05 07:51:20;;;;;;;5.70;3.92;;;-1.80;99.90;;;;;;5092089;28;20020;-47
2022/03/05 07:53:46;;;;;;;5.68;3.15;;;-1.70;99.90;;;;;;5091542;28;20028;-46
2022/03/05 07:56:11;;;;;;;7.35;3.47;;;-1.60;99.90;;;;;;5092206;28;20028;-47
2022/03/05 07:58:37;;;;;;;5.65;3.17;;;-1.60;99.90;;;;;;5091866;28;20038;-46
2022/03/05 08:01:03;;;;;;;5.70;3.50;;;-1.50;99.90;;;;;;5092186;28;20032;-46
2022/03/05 08:03:28;;;;;;;5.30;2.78;;;-1.40;99.90;;;;;;5091576;28;20035;-48
2022/03/05 08:05:54;;;;;;;5.32;3.22;;;-1.30;99.90;;;;;;5091775;28;20587;-48
2022/03/05 08:08:19;;;;;;;8.25;3.53;;;-1.30;99.90;;;;;;5091624;28;20491;-51
2022/03/05 08:10:45;;;;;;;6.25;4.05;;;-1.10;99.90;;;;;;5091552;28;20063;-45
2022/03/05 08:13:11;;;;;;;5.10;3.33;;;-1.00;99.90;;;;;;5090829;28;20032;-47
2022/03/05 08:15:37;;;;;;;6.82;3.80;;;-0.90;99.90;;;;;;5091911;28;20051;-49
2022/03/05 08:18:03;;;;;;;5.95;3.15;;;-0.80;99.90;;;;;;5091811;28;20484;-48
2022/03/05 08:20:30;;;;;;;7.13;3.70;;;-0.70;99.90;;;;;;5091576;28;20039;-47
2022/03/05 08:22:56;;;;;;;8.10;3.92;;;-0.50;99.90;;;;;;5091267;28;20420;-50
2022/03/05 08:25:22;;;;;;;8.77;4.30;;;-0.40;99.90;;;;;;5091796;28;20067;-48
2022/03/05 08:27:48;;;;;;;11.32;4.63;;;-0.20;99.90;;;;;;5091570;28;20023;-49
2022/03/05 08:30:15;;;;;;;6.93;4.30;;;0.00;99.90;;;;;;5091809;28;20028;-49
2022/03/05 08:32:41;;;;;;;7.70;4.30;;;0.20;99.90;;;;;;5091562;28;20472;-49
2022/03/05 08:35:08;;;;;;;12.35;4.68;;;0.40;99.90;;;;;;5090720;28;20020;-49
2022/03/05 08:37:34;;;;;;;7.72;4.60;;;0.70;99.90;;;;;;5090991;28;20066;-52
2022/03/05 08:39:59;;;;;;;7.93;4.45;;;0.90;99.90;;;;;;5079576;28;20039;-50
2022/03/05 08:42:25;;;;;;;7.00;4.10;;;1.10;99.90;;;;;;5070749;28;20107;-50
2022/03/05 08:44:51;;;;;;;8.52;4.15;;;1.30;99.90;;;;;;5091237;28;20124;-49
2022/03/05 08:47:16;;;;;;;6.85;4.88;;;1.50;99.90;;;;;;5091259;28;20035;-50
2022/03/05 08:49:42;;;;;;;6.47;4.15;;;1.70;99.90;;;;;;5090428;28;20567;-50
2022/03/05 08:52:08;;;;;;;6.88;4.45;;;1.90;99.90;;;;;;5089246;28;20053;-49
2022/03/05 08:54:34;;;;;;;6.15;4.15;;;2.00;99.90;;;;;;5089044;28;20329;-50
2022/03/05 08:57:00;;;;;;;7.20;3.78;;;2.20;99.90;;;;;;5090717;28;20024;-47
2022/03/05 08:59:25;;;;;;;8.45;4.53;;;2.40;99.90;;;;;;5090766;28;20464;-53
2022/03/05 09:01:51;;;;;;;7.63;4.18;;;2.60;99.90;;;;;;5090378;28;20373;-49
2022/03/05 09:04:16;;;;;;;7.82;4.10;;;2.80;99.90;;;;;;5089458;28;20054;-52
2022/03/05 09:06:42;;;;;;;8.95;4.25;;;3.00;99.90;;;;;;5090761;28;20051;-49
2022/03/05 09:09:08;;;;;;;6.80;3.83;;;3.10;99.90;;;;;;5090925;28;20039;-48
2022/03/05 09:11:37;;;;;;;6.80;5.03;;;3.20;99.90;;;;;;5090103;28;20509;-48
2022/03/05 09:14:03;;;;;;;7.22;4.32;;;3.30;99.90;;;;;;5090460;28;20028;-50
2022/03/05 09:16:29;;;;;;;6.97;4.22;;;3.40;99.90;;;;;;5090429;28;20507;-49
2022/03/05 09:18:55;;;;;;;6.68;4.60;;;3.40;99.90;;;;;;5089275;28;20058;-49
2022/03/05 09:21:20;;;;;;;5.50;3.88;;;3.50;99.90;;;;;;5089976;28;20411;-49
2022/03/05 09:23:47;;;;;;;6.32;4.07;;;3.50;99.90;;;;;;5090002;28;20024;-51
2022/03/05 09:26:14;;;;;;;6.13;3.78;;;3.60;99.90;;;;;;5090226;28;20027;-49
2022/03/05 09:28:40;;;;;;;7.65;4.28;;;3.70;99.90;;;;;;5090245;28;20020;-48
2022/03/05 09:31:05;;;;;;;7.22;3.92;;;3.80;99.90;;;;;;5089926;28;20042;-49
2022/03/05 09:33:31;;;;;;;7.10;4.50;;;3.80;99.90;;;;;;5089667;28;20085;-48
2022/03/05 09:35:57;;;;;;;6.38;4.32;;;4.00;99.90;;;;;;5089757;28;20042;-53
2022/03/05 09:38:23;;;;;;;7.32;4.53;;;4.20;99.90;;;;;;5090022;28;20031;-51
2022/03/05 09:40:49;;;;;;;6.72;3.88;;;4.20;99.90;;;;;;5089900;28;20036;-49
2022/03/05 09:43:20;;;;;;;6.30;4.50;;;4.30;99.90;;;;;;5088758;28;20023;-52
2022/03/05 09:45:46;;;;;;;7.72;4.45;;;4.40;99.90;;;;;;5090579;28;20035;-48
2022/03/05 09:48:20;;;;;;;8.77;4.28;;;4.40;99.90;;;;;;5089831;28;20288;-49
2022/03/05 09:50:46;;;;;;;6.13;4.28;;;4.60;99.90;;;;;;5071921;28;20047;-50
2022/03/05 09:53:11;;;;;;;10.35;4.13;;;4.60;99.90;;;;;;5089267;28;20040;-51
2022/03/05 09:55:37;;;;;;;10.07;4.65;;;4.70;99.90;;;;;;5089627;28;20099;-50
2022/03/05 09:58:03;;;;;;;7.75;4.78;;;4.70;99.90;;;;;;5089654;28;20054;-47
2022/03/05 10:00:30;;;;;;;6.45;4.32;;;4.80;99.90;;;;;;5071712;28;20055;-48
2022/03/05 10:02:56;;;;;;;6.38;4.25;;;4.90;99.90;;;;;;5089466;28;20527;-49
2022/03/05 10:05:24;;;;;;;6.75;5.05;;;4.90;99.90;;;;;;5089471;28;20024;-52
2022/03/05 10:08:00;;;;;;;6.60;4.50;;;4.90;99.90;;;;;;5089774;28;20020;-47
2022/03/05 10:10:26;;;;;;;9.55;4.68;;;4.90;99.90;;;;;;5076677;28;20033;-49
2022/03/05 10:12:52;;;;;;;5.30;3.95;;;4.80;99.90;;;;;;5088924;28;20036;-49
2022/03/05 10:15:18;;;;;;;8.38;4.15;;;4.80;99.90;;;;;;5089614;28;20526;-48
2022/03/05 10:18:01;;;;;;;9.23;4.60;;;4.90;99.90;;;;;;5089602;28;20508;-51
2022/03/05 10:20:27;;;;;;;7.75;4.43;;;4.90;99.90;;;;;;5089610;28;20560;-50
2022/03/05 10:23:07;;;;;;;5.25;4.13;;;4.90;99.90;;;;;;5090553;28;20035;-49
2022/03/05 10:25:39;;;;;;;9.25;5.13;;;4.70;99.90;;;;;;5090446;28;20024;-48
2022/03/05 10:28:10;;;;;;;7.07;3.90;;;4.70;99.90;;;;;;5083484;28;20547;-48
2022/03/05 10:30:41;;;;;;;7.88;4.65;;;4.80;99.90;;;;;;5090428;28;20491;-50
2022/03/05 10:33:08;;;;;;;5.88;4.45;;;4.90;99.90;;;;;;5068996;28;20029;-51
2022/03/05 10:35:35;;;;;;;7.35;4.00;;;4.90;99.90;;;;;;5087696;28;20033;-51
2022/03/05 10:38:01;;;;;;;5.70;4.03;;;4.80;99.90;;;;;;5092876;28;20028;-51
2022/03/05 10:40:31;;;;;;;7.50;4.00;;;4.70;99.90;;;;;;5093494;28;20028;-49
2022/03/05 10:43:05;;;;;;;6.68;4.50;;;4.70;99.90;;;;;;5092855;28;20036;-49
2022/03/05 10:45:51;;;;;;;5.93;4.32;;;4.70;99.90;;;;;;5093570;28;20032;-49
2022/03/05 10:48:26;;;;;;;5.93;4.47;;;4.70;99.90;;;;;;5093344;28;20024;-50
2022/03/05 10:51:01;;;;;;;6.05;5.03;;;4.70;99.90;;;;;;5092843;28;20030;-49
2022/03/05 10:53:47;;;;;;;6.53;4.53;;;4.60;99.90;;;;;;5091280;28;20020;-51
2022/03/05 10:56:32;;;;;;;7.35;5.55;;;4.60;99.90;;;;;;5093077;28;20095;-50
2022/03/05 10:59:12;;;;;;;5.00;4.50;;;4.60;99.90;;;;;;5090842;28;20048;-48
2022/03/05 11:01:42;;;;;;;6.82;4.80;;;4.60;99.90;;;;;;5091318;28;20040;-48
2022/03/05 11:04:10;;;;;;;6.65;5.60;;;4.60;99.90;;;;;;5092162;28;20115;-48
2022/03/05 11:06:39;;;;;;;8.63;5.65;;;4.60;99.90;;;;;;5093319;28;20038;-50
2022/03/05 11:09:06;;;;;;;9.00;5.85;;;4.60;99.90;;;;;;5091997;28;20605;-50
2022/03/05 11:11:40;;;;;;;10.75;6.60;;;4.60;99.90;;;;;;5092637;28;20128;-50
2022/03/05 11:14:10;;;;;;;8.35;5.95;;;4.50;99.90;;;;;;5092963;28;20047;-51
2022/03/05 11:16:36;;;;;;;7.32;5.85;;;4.50;99.90;;;;;;5091219;28;20028;-50
2022/03/05 11:19:03;;;;;;;8.60;6.35;;;4.60;99.90;;;;;;5092629;28;20059;-49
2022/03/05 11:21:29;;;;;;;8.15;6.10;;;4.60;99.90;;;;;;5092425;28;20055;-51
2022/03/05 11:23:59;;;;;;;7.70;5.82;;;4.60;99.90;;;;;;5092575;28;20479;-48
2022/03/05 11:26:27;;;;;;;9.13;5.43;;;4.60;99.90;;;;;;5090796;28;20028;-52
2022/03/05 11:28:53;;;;;;;7.28;5.18;;;4.70;99.90;;;;;;5088404;28;20044;-48
2022/03/05 11:31:20;;;;;;;8.02;5.47;;;4.70;99.90;;;;;;5092449;28;20024;-49
2022/03/05 11:33:47;;;;;;;7.53;5.47;;;4.70;99.90;;;;;;5092355;28;20093;-49
2022/03/05 11:36:23;;;;;;;8.77;5.60;;;4.70;99.90;;;;;;5092653;28;20016;-49
2022/03/05 11:39:04;;;;;;;5.75;4.85;;;4.70;99.90;;;;;;5092598;28;20020;-49
2022/03/05 11:41:30;;;;;;;5.72;5.13;;;4.70;99.90;;;;;;5092400;28;20111;-48
2022/03/05 11:44:11;;;;;;;9.82;5.32;;;4.60;99.90;;;;;;5091838;28;20074;-48
2022/03/05 11:46:37;;;;;;;6.28;4.85;;;4.60;99.90;;;;;;5090682;28;20420;-49
2022/03/05 11:49:05;;;;;;;6.10;5.43;;;4.50;99.90;;;;;;5091980;28;20032;-49
2022/03/05 11:51:32;;;;;;;5.85;4.78;;;4.60;99.90;;;;;;5091807;28;20051;-50
2022/03/05 11:54:06;;;;;;;9.35;5.50;;;4.60;99.90;;;;;;5091307;28;20048;-48
2022/03/05 11:56:31;;;;;;;6.75;4.93;;;4.60;99.90;;;;;;5091132;28;20020;-49
2022/03/05 11:58:57;;;;;;;5.95;4.68;;;4.60;99.90;;;;;;5091900;28;20096;-49
2022/03/05 12:01:34;;;;;;;6.85;4.82;;;4.60;99.90;;;;;;5091685;28;20103;-49
2022/03/05 12:04:04;;;;;;;5.03;4.03;;;4.70;99.90;;;;;;5091930;28;20180;-48
2022/03/05 12:06:42;;;;;;;6.95;5.05;;;4.70;99.90;;;;;;5079955;28;20514;-48
2022/03/05 12:09:37;;;;;;;7.13;4.45;;;4.70;99.90;;;;;;5090956;28;20024;-51
2022/03/05 12:12:17;;;;;;;6.85;4.75;;;4.70;99.90;;;;;;5091519;28;20032;-48
2022/03/05 12:15:01;;;;;;;5.95;5.20;;;4.70;99.90;;;;;;5273293;22;20104;-57
2022/03/05 12:17:32;;;;;;;5.75;4.45;;;4.80;99.90;;;;;;5090967;28;20499;-56
2022/03/05 12:19:58;;;;;;;5.57;4.53;;;4.80;99.90;;;;;;5091767;28;20024;-54
2022/03/05 12:22:24;;;;;;;8.50;5.22;;;4.90;99.90;;;;;;5090832;28;20024;-52
2022/03/05 12:24:49;;;;;;;6.57;3.92;;;5.10;99.90;;;;;;5091359;28;20039;-56
2022/03/05 12:27:17;;;;;;;6.30;4.28;;;5.20;99.90;;;;;;5091821;28;20043;-53
2022/03/05 12:29:47;;;;;;;6.00;4.43;;;5.30;99.90;;;;;;5091639;28;20029;-52
2022/03/05 12:32:14;;;;;;;7.35;4.75;;;5.30;99.90;;;;;;5091347;28;20041;-55
2022/03/05 12:34:40;;;;;;;6.18;4.35;;;5.20;99.90;;;;;;5091042;28;20498;-55
2022/03/05 12:37:05;;;;;;;6.18;5.07;;;5.20;99.90;;;;;;5090370;28;20055;-56
2022/03/05 12:39:31;;;;;;;5.32;4.38;;;5.30;99.90;;;;;;5090933;28;20032;-57
2022/03/05 12:41:56;;;;;;;5.45;4.95;;;5.30;99.90;;;;;;5090616;28;20051;-52
2022/03/05 12:44:22;;;;;;;7.10;4.30;;;5.30;99.90;;;;;;5090785;28;20381;-54
2022/03/05 12:46:48;;;;;;;7.93;4.43;;;5.20;99.90;;;;;;5090655;28;20035;-54
2022/03/05 12:49:16;;;;;;;6.28;4.40;;;5.20;99.90;;;;;;5090867;28;20024;-55
2022/03/05 12:51:41;;;;;;;6.65;4.07;;;5.20;99.90;;;;;;5090637;28;20048;-51
2022/03/05 12:54:08;;;;;;;5.78;4.90;;;5.20;99.90;;;;;;5090556;28;20537;-51